createdAt,value
2024-01-15T00:02:04.377Z,-1.81
2024-01-15T00:04:30.988Z,-1.82
2024-01-15T00:06:57.776Z,-1.78
2024-01-15T00:09:24.479Z,-1.79
2024-01-15T00:11:51.037Z,-1.74
2024-01-15T00:14:21.248Z,-1.68
2024-01-15T00:16:50.563Z,-1.73
2024-01-15T00:19:17.309Z,-1.74
2024-01-15T00:21:44.556Z,-1.81
2024-01-15T00:24:11.269Z,-1.74
2024-01-15T00:26:37.850Z,-1.75
2024-01-15T00:29:04.885Z,-1.69
2024-01-15T00:31:31.618Z,-1.71
2024-01-15T00:33:59.126Z,-1.65
2024-01-15T00:36:26.387Z,-1.66
2024-01-15T00:38:53.201Z,-1.67
2024-01-15T00:41:19.858Z,-1.66
2024-01-15T00:43:47.273Z,-1.67
2024-01-15T00:46:13.820Z,-1.79
2024-01-15T00:48:40.457Z,-1.67
2024-01-15T00:51:07.303Z,-1.70
2024-01-15T00:53:34.134Z,-1.61
2024-01-15T00:56:01.310Z,-1.71
2024-01-15T00:58:28.176Z,-1.67
2024-01-15T01:00:54.792Z,-1.66
2024-01-15T01:03:21.634Z,-1.64
2024-01-15T01:05:51.216Z,-1.72
2024-01-15T01:08:18.180Z,-1.71
2024-01-15T01:10:44.771Z,-1.72
2024-01-15T01:13:11.479Z,-1.76
2024-01-15T01:15:38.448Z,-1.75
2024-01-15T01:18:05.899Z,-1.84
2024-01-15T01:20:32.731Z,-1.78
2024-01-15T01:22:59.340Z,-1.87
2024-01-15T01:25:25.994Z,-1.85
2024-01-15T01:27:52.557Z,-1.92
2024-01-15T01:30:19.264Z,-1.97
2024-01-15T01:32:45.883Z,-2.04
2024-01-15T01:35:13.772Z,-2.16
2024-01-15T01:37:40.274Z,-2.08
2024-01-15T01:40:07.573Z,-2.03
2024-01-15T01:42:34.204Z,-1.98
2024-01-15T01:45:00.762Z,-2.05
2024-01-15T01:47:27.792Z,-2.00
2024-01-15T01:49:55.182Z,-2.06
2024-01-15T01:52:21.949Z,-1.99
2024-01-15T01:54:48.952Z,-2.01
2024-01-15T01:57:16.641Z,-1.91
2024-01-15T01:59:43.209Z,-1.98
2024-01-15T02:02:09.789Z,-1.96
2024-01-15T02:04:38.038Z,-1.95
2024-01-15T02:07:05.520Z,-1.96
2024-01-15T02:09:33.294Z,-1.88
2024-01-15T02:12:00.254Z,-1.82
2024-01-15T02:14:27.103Z,-1.78
2024-01-15T02:16:53.694Z,-1.81
2024-01-15T02:19:20.522Z,-1.75
2024-01-15T02:21:47.308Z,-1.74
2024-01-15T02:24:14.215Z,-1.80
2024-01-15T02:26:40.993Z,-1.93
2024-01-15T02:29:11.595Z,-1.84
2024-01-15T02:31:38.482Z,-1.75
2024-01-15T02:34:05.795Z,-1.91
2024-01-15T02:36:32.591Z,-1.86
2024-01-15T02:38:59.206Z,-1.88
2024-01-15T02:41:25.891Z,-1.87
2024-01-15T02:43:52.448Z,-1.77
2024-01-15T02:46:19.087Z,-1.89
2024-01-15T02:48:45.839Z,-1.83
2024-01-15T02:51:12.650Z,-1.84
2024-01-15T02:53:40.144Z,-1.86
2024-01-15T02:56:08.887Z,-1.89
2024-01-15T02:58:35.579Z,-1.95
2024-01-15T03:01:02.536Z,-1.82
2024-01-15T03:03:29.720Z,-1.90
2024-01-15T03:05:56.477Z,-1.95
2024-01-15T03:08:24.020Z,-2.10
2024-01-15T03:10:51.030Z,-2.17
2024-01-15T03:13:17.614Z,-2.27
2024-01-15T03:15:44.733Z,-2.25
2024-01-15T03:18:11.667Z,-2.20
2024-01-15T03:20:38.413Z,-2.08
2024-01-15T03:23:05.075Z,-2.05
2024-01-15T03:25:31.704Z,-2.08
2024-01-15T03:27:58.370Z,-2.03
2024-01-15T03:30:25.180Z,-1.95
2024-01-15T03:32:51.832Z,-1.86
2024-01-15T03:35:18.351Z,-1.73
2024-01-15T03:37:44.919Z,-1.69
2024-01-15T03:40:12.158Z,-1.56
2024-01-15T03:42:38.814Z,-1.60
2024-01-15T03:45:05.958Z,-1.52
2024-01-15T03:47:32.780Z,-1.51
2024-01-15T03:49:59.521Z,-1.59
2024-01-15T03:52:26.255Z,-1.57
2024-01-15T03:54:52.878Z,-1.46
2024-01-15T03:57:19.554Z,-1.42
2024-01-15T03:59:48.405Z,-1.36
2024-01-15T04:02:15.481Z,-1.35
2024-01-15T04:04:44.087Z,-1.34
2024-01-15T04:07:11.109Z,-1.30
2024-01-15T04:09:37.805Z,-1.24
2024-01-15T04:12:04.691Z,-1.25
2024-01-15T04:14:31.208Z,-1.20
2024-01-15T04:16:57.822Z,-1.16
2024-01-15T04:19:24.346Z,-1.12
2024-01-15T04:21:51.139Z,-1.15
2024-01-15T04:24:19.180Z,-1.12
2024-01-15T04:26:46.453Z,-1.11
2024-01-15T04:29:13.173Z,-1.15
2024-01-15T04:31:39.916Z,-1.17
2024-01-15T04:34:06.626Z,-1.10
2024-01-15T04:36:40.418Z,-1.21
2024-01-15T04:39:07.197Z,-1.23
2024-01-15T04:41:34.026Z,-1.16
2024-01-15T04:44:02.317Z,-1.08
2024-01-15T04:46:29.042Z,-1.03
2024-01-15T04:48:55.712Z,-1.00
2024-01-15T04:51:22.345Z,-1.00
2024-01-15T04:53:48.947Z,-0.96
2024-01-15T04:56:15.450Z,-0.95
2024-01-15T04:58:41.972Z,-1.01
2024-01-15T05:01:09.989Z,-0.93
2024-01-15T05:03:37.158Z,-0.92
2024-01-15T05:06:04.463Z,-0.90
2024-01-15T05:08:31.241Z,-0.90
2024-01-15T05:10:57.838Z,-0.90
2024-01-15T05:13:24.360Z,-0.90
2024-01-15T05:15:50.992Z,-0.92
2024-01-15T05:18:18.215Z,-0.88
2024-01-15T05:20:45.366Z,-0.84
2024-01-15T05:23:12.028Z,-0.80
2024-01-15T05:25:38.594Z,-0.83
2024-01-15T05:28:06.607Z,-0.93
2024-01-15T05:30:33.303Z,-0.93
2024-01-15T05:33:01.509Z,-0.97
2024-01-15T05:35:28.257Z,-1.11
2024-01-15T05:37:54.846Z,-1.11
2024-01-15T05:40:22.081Z,-1.06
2024-01-15T05:42:48.991Z,-1.11
2024-01-15T05:45:15.737Z,-1.05
2024-01-15T05:47:42.475Z,-1.04
2024-01-15T05:50:09.866Z,-1.12
2024-01-15T05:52:37.549Z,-1.06
2024-01-15T05:55:04.397Z,-0.99
2024-01-15T05:57:31.083Z,-1.00
2024-01-15T05:59:57.766Z,-1.07
2024-01-15T06:02:24.440Z,-1.07
2024-01-15T06:04:51.048Z,-0.98
2024-01-15T06:07:17.688Z,-0.98
2024-01-15T06:09:44.383Z,-0.93
2024-01-15T06:12:10.980Z,-0.95
2024-01-15T06:14:37.716Z,-0.95
2024-01-15T06:17:04.481Z,-0.91
2024-01-15T06:19:31.215Z,-0.91
2024-01-15T06:21:58.371Z,-0.91
2024-01-15T06:24:25.155Z,-0.87
2024-01-15T06:26:51.735Z,-0.82
2024-01-15T06:29:18.362Z,-0.78
2024-01-15T06:31:45.407Z,-0.79
2024-01-15T06:34:12.244Z,-0.79
2024-01-15T06:36:38.996Z,-0.75
2024-01-15T06:39:06.302Z,-0.70
2024-01-15T06:41:33.164Z,-0.72
2024-01-15T06:43:59.850Z,-0.71
2024-01-15T06:46:26.386Z,-0.70
2024-01-15T06:48:52.971Z,-0.67
2024-01-15T06:51:19.707Z,-0.69
2024-01-15T06:53:46.294Z,-0.66
2024-01-15T06:56:13.316Z,-0.76
2024-01-15T06:58:39.902Z,-0.67
2024-01-15T07:01:09.171Z,-0.68
2024-01-15T07:03:35.968Z,-0.68
2024-01-15T07:06:02.775Z,-0.69
2024-01-15T07:08:29.506Z,-0.72
2024-01-15T07:10:56.020Z,-0.63
2024-01-15T07:13:23.269Z,-0.59
2024-01-15T07:15:50.037Z,-0.51
2024-01-15T07:18:17.777Z,-0.44
2024-01-15T07:20:44.582Z,-0.49
2024-01-15T07:23:11.181Z,-0.43
2024-01-15T07:25:37.906Z,-0.44
2024-01-15T07:28:05.411Z,-0.41
2024-01-15T07:30:32.174Z,-0.45
2024-01-15T07:32:58.849Z,-0.38
2024-01-15T07:35:25.753Z,-0.40
2024-01-15T07:37:52.452Z,-0.36
2024-01-15T07:40:18.954Z,-0.35
2024-01-15T07:42:45.505Z,-0.33
2024-01-15T07:45:12.486Z,-0.27
2024-01-15T07:47:39.091Z,-0.27
2024-01-15T07:50:06.851Z,-0.29
2024-01-15T07:52:35.213Z,-0.23
2024-01-15T07:55:02.190Z,-0.25
2024-01-15T07:57:29.368Z,-0.24
2024-01-15T07:59:55.921Z,-0.21
2024-01-15T08:02:23.025Z,-0.22
2024-01-15T08:04:49.739Z,-0.22
2024-01-15T08:07:17.293Z,-0.19
2024-01-15T08:09:44.076Z,-0.21
2024-01-15T08:12:11.554Z,-0.10
2024-01-15T08:14:38.101Z,-0.13
2024-01-15T08:17:04.804Z,-0.11
2024-01-15T08:19:31.586Z,-0.10
2024-01-15T08:21:58.266Z,-0.14
2024-01-15T08:24:24.904Z,-0.17
2024-01-15T08:26:51.471Z,-0.11
2024-01-15T08:29:19.818Z,-0.11
2024-01-15T08:31:46.739Z,-0.07
2024-01-15T08:34:13.705Z,-0.18
2024-01-15T08:36:41.716Z,-0.07
2024-01-15T08:39:10.092Z,-0.10
2024-01-15T08:41:37.174Z,-0.02
2024-01-15T08:44:04.121Z,0.00
2024-01-15T08:46:30.804Z,0.04
2024-01-15T08:48:57.464Z,0.03
2024-01-15T08:51:24.251Z,-0.04
2024-01-15T08:53:50.837Z,0.08
2024-01-15T08:56:17.821Z,0.07
2024-01-15T08:58:44.475Z,0.03
2024-01-15T09:01:12.532Z,0.08
2024-01-15T09:03:39.173Z,0.04
2024-01-15T09:06:05.976Z,0.07
2024-01-15T09:08:32.475Z,0.07
2024-01-15T09:11:00.093Z,0.10
2024-01-15T09:13:26.576Z,0.09
2024-01-15T09:15:54.118Z,0.13
2024-01-15T09:18:21.055Z,0.20
2024-01-15T09:20:47.694Z,0.20
2024-01-15T09:23:14.275Z,0.19
2024-01-15T09:25:41.355Z,0.23
2024-01-15T09:28:09.085Z,0.30
2024-01-15T09:30:35.652Z,0.28
2024-01-15T09:33:02.845Z,0.24
2024-01-15T09:35:29.496Z,0.29
2024-01-15T09:37:56.109Z,0.31
2024-01-15T09:40:22.793Z,0.25
2024-01-15T09:42:51.621Z,0.23
2024-01-15T09:45:18.392Z,0.24
2024-01-15T09:47:46.675Z,0.13
2024-01-15T09:50:16.089Z,0.23
2024-01-15T09:52:44.695Z,0.26
2024-01-15T09:55:13.085Z,0.31
2024-01-15T09:57:40.484Z,0.29
2024-01-15T10:00:08.637Z,0.39
2024-01-15T10:02:37.119Z,0.41
2024-01-15T10:05:06.083Z,0.38
2024-01-15T10:07:36.093Z,0.47
2024-01-15T10:10:05.279Z,0.36
2024-01-15T10:12:31.983Z,0.51
2024-01-15T10:14:59.879Z,0.55
2024-01-15T10:17:29.130Z,0.57
2024-01-15T10:19:56.073Z,0.58
2024-01-15T10:22:23.238Z,0.58
2024-01-15T10:24:50.382Z,0.60
2024-01-15T10:27:17.579Z,0.59
2024-01-15T10:29:44.757Z,0.68
2024-01-15T10:32:12.645Z,0.70
2024-01-15T10:34:44.367Z,0.65
2024-01-15T10:37:11.620Z,0.64
2024-01-15T10:39:39.318Z,0.62
2024-01-15T10:42:07.779Z,0.67
2024-01-15T10:44:35.642Z,0.68
2024-01-15T10:47:02.795Z,0.75
2024-01-15T10:49:32.835Z,0.81
2024-01-15T10:52:02.471Z,0.82
2024-01-15T10:54:30.394Z,0.71
2024-01-15T10:56:58.195Z,0.90
2024-01-15T10:59:26.409Z,0.94
2024-01-15T11:01:57.449Z,0.88
2024-01-15T11:04:25.564Z,0.91
2024-01-15T11:06:55.993Z,0.96
2024-01-15T11:09:25.008Z,0.95
2024-01-15T11:12:08.196Z,0.98
2024-01-15T11:14:47.566Z,1.05
2024-01-15T11:17:15.023Z,1.05
2024-01-15T11:19:46.346Z,1.07
2024-01-15T11:22:34.972Z,1.11
2024-01-15T11:25:05.560Z,1.11
2024-01-15T11:27:53.316Z,1.14
2024-01-15T11:30:21.228Z,1.11
2024-01-15T11:32:48.018Z,1.14
2024-01-15T11:35:16.322Z,1.14
2024-01-15T11:37:52.125Z,1.14
2024-01-15T11:40:35.533Z,1.14
2024-01-15T11:43:03.814Z,1.16
2024-01-15T11:45:31.786Z,1.19
2024-01-15T11:48:13.521Z,1.03
2024-01-15T11:50:45.413Z,1.27
2024-01-15T11:53:28.253Z,1.30
2024-01-15T11:55:59.425Z,1.29
2024-01-15T11:58:26.614Z,1.29
2024-01-15T12:00:54.875Z,1.32
2024-01-15T12:03:25.861Z,1.34
2024-01-15T12:05:56.306Z,1.31
2024-01-15T12:08:26.327Z,1.37
2024-01-15T12:10:53.279Z,1.37
2024-01-15T12:13:22.185Z,1.41
2024-01-15T12:15:50.019Z,1.38
2024-01-15T12:18:19.708Z,1.32
2024-01-15T12:20:49.865Z,1.33
2024-01-15T12:23:18.420Z,1.27
2024-01-15T12:25:45.468Z,1.25
2024-01-15T12:28:12.492Z,1.24
2024-01-15T12:30:40.251Z,1.31
2024-01-15T12:33:08.921Z,1.36
2024-01-15T12:35:37.666Z,1.36
2024-01-15T12:38:04.893Z,1.33
2024-01-15T12:40:34.422Z,1.34
2024-01-15T12:43:01.974Z,1.37
2024-01-15T12:45:28.790Z,1.41
2024-01-15T12:47:56.276Z,1.45
2024-01-15T12:50:25.570Z,1.46
2024-01-15T12:52:52.529Z,1.47
2024-01-15T12:55:19.227Z,1.46
2024-01-15T12:57:46.806Z,1.45
2024-01-15T13:00:15.334Z,1.37
2024-01-15T13:02:45.368Z,1.38
2024-01-15T13:05:14.173Z,1.37
2024-01-15T13:07:42.104Z,1.30
2024-01-15T13:10:10.523Z,1.33
2024-01-15T13:12:38.883Z,1.39
2024-01-15T13:15:05.949Z,1.35
2024-01-15T13:17:32.652Z,1.39
2024-01-15T13:19:59.730Z,1.45
2024-01-15T13:22:33.809Z,1.50
2024-01-15T13:25:01.410Z,1.53
2024-01-15T13:27:28.209Z,1.56
2024-01-15T13:29:55.158Z,1.60
2024-01-15T13:32:30.530Z,1.68
2024-01-15T13:34:58.706Z,1.63
2024-01-15T13:37:25.695Z,1.72
2024-01-15T13:39:53.814Z,1.67
2024-01-15T13:42:23.947Z,1.75
2024-01-15T13:44:51.756Z,1.71
2024-01-15T13:47:18.450Z,1.73
2024-01-15T13:49:45.379Z,1.79
2024-01-15T13:52:12.144Z,1.85
2024-01-15T13:54:48.114Z,1.86
2024-01-15T13:57:18.060Z,1.86
2024-01-15T13:59:44.800Z,1.82
2024-01-15T14:02:11.644Z,1.90
2024-01-15T14:04:39.757Z,1.94
2024-01-15T14:07:07.540Z,1.94
2024-01-15T14:09:34.697Z,1.85
2024-01-15T14:12:01.300Z,1.79
2024-01-15T14:14:27.805Z,1.80
2024-01-15T14:16:54.367Z,1.82
2024-01-15T14:19:22.304Z,1.77
2024-01-15T14:21:49.618Z,1.76
2024-01-15T14:24:17.534Z,1.73
2024-01-15T14:26:44.453Z,1.76
2024-01-15T14:29:11.191Z,1.78
2024-01-15T14:31:37.939Z,1.79
2024-01-15T14:34:04.938Z,1.74
2024-01-15T14:36:31.731Z,1.74
2024-01-15T14:38:58.329Z,1.66
2024-01-15T14:41:25.641Z,1.71
2024-01-15T14:43:52.264Z,1.70
2024-01-15T14:46:19.038Z,1.72
2024-01-15T14:48:46.302Z,1.75
2024-01-15T14:51:13.334Z,1.74
2024-01-15T14:53:40.149Z,1.75
2024-01-15T14:56:06.932Z,1.65
2024-01-15T14:58:34.016Z,1.63
2024-01-15T15:01:00.710Z,1.71
2024-01-15T15:03:27.678Z,1.62
2024-01-15T15:05:54.508Z,1.66
2024-01-15T15:08:21.170Z,1.66
2024-01-15T15:10:48.215Z,1.63
2024-01-15T15:13:14.798Z,1.63
2024-01-15T15:15:42.346Z,1.64
2024-01-15T15:18:08.987Z,1.63
2024-01-15T15:20:36.537Z,1.63
2024-01-15T15:23:04.193Z,1.56
2024-01-15T15:25:30.824Z,1.60
2024-01-15T15:27:57.626Z,1.58
2024-01-15T15:30:24.426Z,1.54
2024-01-15T15:32:51.121Z,1.56
2024-01-15T15:35:17.988Z,1.50
2024-01-15T15:37:44.625Z,1.53
2024-01-15T15:40:12.437Z,1.51
2024-01-15T15:42:39.280Z,1.52
2024-01-15T15:45:07.289Z,1.53
2024-01-15T15:47:33.976Z,1.53
2024-01-15T15:50:00.871Z,1.54
2024-01-15T15:52:28.127Z,1.57
2024-01-15T15:54:54.803Z,1.59
2024-01-15T15:57:21.960Z,1.51
2024-01-15T15:59:48.511Z,1.41
2024-01-15T16:02:15.696Z,1.45
2024-01-15T16:04:42.314Z,1.40
2024-01-15T16:07:10.937Z,1.38
2024-01-15T16:09:38.256Z,1.39
2024-01-15T16:12:05.494Z,1.25
2024-01-15T16:14:32.031Z,1.23
2024-01-15T16:23:13.751Z,1.21
2024-01-15T16:23:26.939Z,1.19
2024-01-15T16:23:42.363Z,1.20
2024-01-15T16:25:19.740Z,1.26
2024-01-15T16:27:46.582Z,1.27
2024-01-15T16:30:24.704Z,1.25
2024-01-15T16:32:56.805Z,1.23
2024-01-15T16:35:24.006Z,1.23
2024-01-15T16:37:51.121Z,1.21
2024-01-15T16:40:17.886Z,1.26
2024-01-15T16:42:46.210Z,1.24
2024-01-15T16:45:13.033Z,1.17
2024-01-15T16:47:40.043Z,1.17
2024-01-15T16:50:07.086Z,1.23
2024-01-15T16:52:34.211Z,1.23
2024-01-15T16:55:00.973Z,1.27
2024-01-15T16:57:27.616Z,1.21
2024-01-15T16:59:54.273Z,1.15
2024-01-15T17:02:21.009Z,1.16
2024-01-15T17:04:48.248Z,1.21
2024-01-15T17:07:15.223Z,1.28
2024-01-15T17:09:41.757Z,1.27
2024-01-15T17:12:08.882Z,1.27
2024-01-15T17:14:35.966Z,1.27
2024-01-15T17:17:02.804Z,1.16
2024-01-15T17:19:29.463Z,1.09
2024-01-15T17:21:56.482Z,1.11
2024-01-15T17:24:23.109Z,1.08
2024-01-15T17:26:50.237Z,1.13
2024-01-15T17:29:17.520Z,1.07
2024-01-15T17:31:44.565Z,1.10
2024-01-15T17:34:11.656Z,1.15
2024-01-15T17:36:39.030Z,1.14
2024-01-15T17:41:13.787Z,0.21
2024-01-15T17:43:40.399Z,0.22
2024-01-15T17:46:06.941Z,0.27
2024-01-15T17:48:34.128Z,0.28
2024-01-15T17:51:00.800Z,0.31
2024-01-15T17:53:27.370Z,0.22
2024-01-15T17:55:53.947Z,0.20
2024-01-15T17:58:20.924Z,0.19
2024-01-15T18:00:47.452Z,0.21
2024-01-15T18:03:14.015Z,0.19
2024-01-15T18:05:41.452Z,0.13
2024-01-15T18:08:08.072Z,0.06
2024-01-15T18:10:34.628Z,0.08
2024-01-15T18:13:01.321Z,0.06
2024-01-15T18:15:28.078Z,0.07
2024-01-15T18:17:54.935Z,0.08
2024-01-15T18:20:22.251Z,0.07
2024-01-15T18:22:51.542Z,0.11
2024-01-15T18:25:18.400Z,0.16
2024-01-15T18:27:44.975Z,0.14
2024-01-15T18:30:14.391Z,0.20
2024-01-15T18:32:41.149Z,0.13
2024-01-15T18:35:08.046Z,0.15
2024-01-15T18:37:34.798Z,0.07
2024-01-15T18:40:01.662Z,0.09
2024-01-15T18:42:29.009Z,0.08
2024-01-15T18:44:55.631Z,0.11
2024-01-15T18:47:22.175Z,0.14
2024-01-15T18:49:48.902Z,0.18
2024-01-15T18:52:17.548Z,0.19
2024-01-15T18:54:44.273Z,0.11
2024-01-15T18:57:10.897Z,0.18
2024-01-15T18:59:38.624Z,0.18
2024-01-15T19:02:05.350Z,0.18
2024-01-15T19:04:32.019Z,0.19
2024-01-15T19:06:58.672Z,0.09
2024-01-15T19:09:26.910Z,0.12
2024-01-15T19:11:53.959Z,0.07
2024-01-15T19:14:20.782Z,-0.06
2024-01-15T19:16:47.664Z,0.04
2024-01-15T19:19:14.671Z,0.09
2024-01-15T19:21:41.250Z,0.04
2024-01-15T19:24:07.944Z,-0.00
2024-01-15T19:26:34.518Z,-0.01
2024-01-15T19:29:01.553Z,-0.04
2024-01-15T19:31:30.531Z,-0.08
2024-01-15T19:33:57.592Z,-0.10
2024-01-15T19:36:26.234Z,-0.14
2024-01-15T19:38:54.191Z,-0.09
2024-01-15T19:41:22.140Z,-0.14
2024-01-15T19:43:48.937Z,-0.17
2024-01-15T19:46:16.012Z,-0.16
2024-01-15T19:48:42.692Z,-0.16
2024-01-15T19:51:09.374Z,-0.15
2024-01-15T19:53:36.294Z,-0.06
2024-01-15T19:56:03.356Z,-0.05
2024-01-15T19:58:32.038Z,-0.09
2024-01-15T20:01:00.603Z,-0.04
2024-01-15T20:03:27.414Z,-0.01
2024-01-15T20:05:54.063Z,0.05
2024-01-15T20:08:21.408Z,0.06
2024-01-15T20:10:48.451Z,0.07
2024-01-15T20:13:15.111Z,0.06
2024-01-15T20:15:41.665Z,0.03
2024-01-15T20:18:09.212Z,0.02
2024-01-15T20:20:36.454Z,-0.06
2024-01-15T20:23:05.631Z,-0.05
2024-01-15T20:25:32.727Z,-0.06
2024-01-15T20:27:59.474Z,-0.08
2024-01-15T20:30:26.027Z,-0.14
2024-01-15T20:32:52.825Z,-0.17
2024-01-15T20:35:22.218Z,-0.21
2024-01-15T20:37:49.659Z,-0.19
2024-01-15T20:40:16.195Z,-0.26
2024-01-15T20:42:42.843Z,-0.23
2024-01-15T20:45:09.502Z,-0.25
2024-01-15T20:47:36.217Z,-0.52
2024-01-15T20:50:03.960Z,-0.21
2024-01-15T20:52:30.522Z,-0.15
2024-01-15T20:54:57.110Z,-0.17
2024-01-15T20:57:23.679Z,-0.19
2024-01-15T20:59:51.948Z,-0.13
2024-01-15T21:02:19.045Z,-0.09
2024-01-15T21:04:45.632Z,-0.10
2024-01-15T21:07:12.262Z,-0.05
2024-01-15T21:09:41.127Z,-0.07
2024-01-15T21:12:11.251Z,-0.05
2024-01-15T21:14:39.560Z,-0.10
2024-01-15T21:17:06.398Z,-0.18
2024-01-15T21:19:33.101Z,-0.13
2024-01-15T21:21:59.896Z,-0.16
2024-01-15T21:24:28.706Z,-0.18
2024-01-15T21:26:57.854Z,-0.17
2024-01-15T21:29:25.522Z,-0.25
2024-01-15T21:31:52.482Z,-0.22
2024-01-15T21:34:21.715Z,-0.24
2024-01-15T21:36:49.529Z,-0.27
2024-01-15T21:39:16.807Z,-0.30
2024-01-15T21:41:44.779Z,-0.40
2024-01-15T21:44:12.055Z,-0.43
2024-01-15T21:46:38.936Z,-0.39
2024-01-15T21:49:05.794Z,-0.46
2024-01-15T21:51:33.123Z,-0.52
2024-01-15T21:54:00.610Z,-0.48
2024-01-15T21:56:27.630Z,-0.44
2024-01-15T21:58:54.163Z,-0.47
2024-01-15T22:01:20.936Z,-0.51
2024-01-15T22:03:47.575Z,-0.61
2024-01-15T22:06:15.248Z,-0.56
2024-01-15T22:08:42.087Z,-0.55
2024-01-15T22:11:08.626Z,-0.54
2024-01-15T22:13:35.183Z,-0.53
2024-01-15T22:16:03.330Z,-0.64
2024-01-15T22:18:29.980Z,-0.62
2024-01-15T22:20:58.002Z,-0.54
2024-01-15T22:23:24.856Z,-0.58
2024-01-15T22:25:51.481Z,-0.63
2024-01-15T22:28:18.022Z,-0.59
2024-01-15T22:30:44.845Z,-0.59
2024-01-15T22:33:11.603Z,-0.59
2024-01-15T22:35:38.930Z,-0.65
2024-01-15T22:38:06.868Z,-0.58
2024-01-15T22:40:33.404Z,-0.57
2024-01-15T22:42:59.979Z,-0.56
2024-01-15T22:45:26.809Z,-0.59
2024-01-15T22:47:53.573Z,-0.61
2024-01-15T22:50:20.261Z,-0.67
2024-01-15T22:52:46.950Z,-0.62
2024-01-15T22:55:13.590Z,-0.64
2024-01-15T22:57:40.111Z,-0.63
2024-01-15T23:00:20.593Z,-0.76
2024-01-15T23:02:48.389Z,-0.77
2024-01-15T23:05:15.563Z,-0.80
2024-01-15T23:07:42.596Z,-0.83
2024-01-15T23:10:09.923Z,-0.76
2024-01-15T23:12:37.663Z,-0.87
2024-01-15T23:15:08.126Z,-0.78
2024-01-15T23:17:35.484Z,-0.84
2024-01-15T23:20:02.505Z,-1.19
2024-01-15T23:22:30.152Z,-0.92
2024-01-15T23:24:56.791Z,-0.95
2024-01-15T23:27:23.395Z,-0.94
2024-01-15T23:29:50.057Z,-0.95
2024-01-15T23:32:16.729Z,-1.00
2024-01-15T23:34:43.398Z,-1.03
2024-01-15T23:37:09.895Z,-1.07
2024-01-15T23:39:36.679Z,-0.97
2024-01-15T23:42:03.334Z,-0.97
2024-01-15T23:44:30.035Z,-1.00
2024-01-15T23:46:56.607Z,-0.99
2024-01-15T23:49:23.214Z,-0.94
2024-01-15T23:51:49.843Z,-1.15
2024-01-15T23:54:16.427Z,-0.97
2024-01-15T23:56:43.804Z,-1.00
2024-01-15T23:59:10.424Z,-0.98
